createdAt,value
2022-12-29T00:00:19.097Z,95.10
2022-12-29T00:02:46.147Z,95.10
2022-12-29T00:05:13.131Z,95.00
2022-12-29T00:07:39.946Z,95.00
2022-12-29T00:10:09.930Z,94.90
2022-12-29T00:12:55.332Z,94.80
2022-12-29T00:15:40.603Z,94.80
2022-12-29T00:18:08.148Z,94.70
2022-12-29T00:20:57.210Z,94.60
2022-12-29T00:23:42.863Z,94.60
2022-12-29T00:26:34.781Z,94.50
2022-12-29T00:29:20.043Z,94.50
2022-12-29T00:32:05.514Z,94.50
2022-12-29T00:34:50.687Z,94.50
2022-12-29T00:37:17.611Z,94.50
2022-12-29T00:40:03.293Z,94.50
2022-12-29T00:42:50.527Z,94.50
2022-12-29T00:45:17.389Z,94.50
2022-12-29T00:47:44.971Z,94.50
2022-12-29T00:50:11.824Z,94.50
2022-12-29T00:52:38.627Z,94.50
2022-12-29T00:55:05.866Z,94.60
2022-12-29T00:57:32.702Z,94.60
2022-12-29T00:59:59.571Z,94.60
2022-12-29T01:02:26.597Z,94.60
2022-12-29T01:04:53.641Z,94.70
2022-12-29T01:07:20.432Z,94.70
2022-12-29T01:10:05.935Z,94.60
2022-12-29T01:12:45.738Z,94.60
2022-12-29T01:15:14.458Z,94.50
2022-12-29T01:17:42.198Z,94.40
2022-12-29T01:20:09.704Z,94.20
2022-12-29T01:22:36.633Z,94.10
2022-12-29T01:25:04.338Z,93.90
2022-12-29T01:27:31.274Z,93.70
2022-12-29T01:29:58.393Z,93.60
2022-12-29T01:32:25.432Z,93.50
2022-12-29T01:34:52.314Z,93.40
2022-12-29T01:37:19.284Z,93.40
2022-12-29T01:39:46.354Z,93.30
2022-12-29T01:42:17.339Z,93.20
2022-12-29T01:44:49.537Z,93.10
2022-12-29T01:47:37.038Z,93.10
2022-12-29T01:50:17.846Z,93.10
2022-12-29T01:53:11.551Z,93.10
2022-12-29T01:55:54.698Z,93.10
2022-12-29T01:58:23.622Z,93.30
2022-12-29T02:00:50.579Z,93.10
2022-12-29T02:03:18.039Z,93.20
2022-12-29T02:05:55.648Z,93.20
2022-12-29T02:08:23.416Z,93.20
2022-12-29T02:10:50.299Z,93.10
2022-12-29T02:13:18.314Z,93.10
2022-12-29T02:15:51.054Z,93.00
2022-12-29T02:19:15.531Z,93.00
2022-12-29T02:22:03.940Z,92.90
2022-12-29T02:24:58.870Z,93.00
2022-12-29T02:27:25.719Z,92.90
2022-12-29T02:30:01.674Z,93.00
2022-12-29T02:32:40.609Z,93.00
2022-12-29T02:35:10.273Z,92.90
2022-12-29T02:38:07.738Z,93.00
2022-12-29T02:41:00.719Z,93.00
2022-12-29T02:43:35.815Z,93.00
2022-12-29T02:46:16.657Z,93.00
2022-12-29T02:49:11.822Z,93.10
2022-12-29T02:51:55.923Z,92.90
2022-12-29T02:54:42.137Z,92.90
2022-12-29T02:57:29.125Z,92.90
2022-12-29T03:00:10.021Z,92.90
2022-12-29T03:02:57.341Z,92.70
2022-12-29T03:05:36.250Z,92.60
2022-12-29T03:08:20.315Z,92.60
2022-12-29T03:10:53.026Z,92.60
2022-12-29T03:13:38.518Z,92.60
2022-12-29T03:16:30.208Z,92.60
2022-12-29T03:19:07.808Z,92.50
2022-12-29T03:22:03.076Z,92.50
2022-12-29T03:24:35.882Z,92.60
2022-12-29T03:27:04.700Z,92.40
2022-12-29T03:29:40.108Z,92.30
2022-12-29T03:32:07.120Z,92.20
2022-12-29T03:34:34.434Z,92.10
2022-12-29T03:37:08.533Z,92.00
2022-12-29T03:39:35.590Z,91.90
2022-12-29T03:42:12.452Z,91.90
2022-12-29T03:44:42.357Z,91.70
2022-12-29T03:47:11.685Z,91.70
2022-12-29T03:49:38.765Z,91.90
2022-12-29T03:52:05.880Z,91.80
2022-12-29T03:54:37.599Z,91.60
2022-12-29T03:57:04.589Z,91.60
2022-12-29T03:59:43.643Z,91.60
2022-12-29T04:02:11.813Z,91.90
2022-12-29T04:04:39.745Z,91.90
2022-12-29T04:07:07.819Z,91.70
2022-12-29T04:09:34.760Z,91.70
2022-12-29T04:12:02.624Z,91.80
2022-12-29T04:14:29.635Z,91.80
2022-12-29T04:16:56.876Z,91.80
2022-12-29T04:19:23.929Z,91.80
2022-12-29T04:21:50.804Z,92.00
2022-12-29T04:24:18.811Z,91.70
2022-12-29T04:26:46.244Z,91.80
2022-12-29T04:29:30.432Z,91.80
2022-12-29T04:32:13.391Z,91.90
2022-12-29T04:34:46.549Z,92.30
2022-12-29T04:37:13.603Z,92.10
2022-12-29T04:39:40.435Z,92.20
2022-12-29T04:42:08.804Z,92.30
2022-12-29T04:44:38.670Z,92.30
2022-12-29T04:47:32.216Z,92.40
2022-12-29T04:50:17.712Z,92.50
2022-12-29T04:52:53.297Z,92.50
2022-12-29T04:55:20.178Z,92.50
2022-12-29T04:57:47.008Z,92.60
2022-12-29T05:00:18.835Z,92.60
2022-12-29T05:02:46.302Z,92.60
2022-12-29T05:05:14.679Z,92.70
2022-12-29T05:07:44.345Z,92.70
2022-12-29T05:10:11.252Z,92.80
2022-12-29T05:12:38.621Z,93.00
2022-12-29T05:15:06.689Z,92.90
2022-12-29T05:17:34.996Z,92.90
2022-12-29T05:20:01.850Z,93.00
2022-12-29T05:22:29.325Z,93.10
2022-12-29T05:24:57.173Z,93.20
2022-12-29T05:27:24.316Z,93.30
2022-12-29T05:30:20.550Z,93.50
2022-12-29T05:32:47.428Z,93.40
2022-12-29T05:35:14.415Z,93.40
2022-12-29T05:37:41.582Z,93.40
2022-12-29T05:40:09.131Z,93.40
2022-12-29T05:42:36.126Z,93.50
2022-12-29T05:45:17.625Z,93.60
2022-12-29T05:48:05.740Z,93.60
2022-12-29T05:50:43.658Z,93.60
2022-12-29T05:53:13.407Z,93.70
2022-12-29T05:55:49.025Z,93.70
2022-12-29T05:58:17.414Z,93.90
2022-12-29T06:00:44.649Z,93.60
2022-12-29T06:03:13.313Z,93.50
2022-12-29T06:05:40.287Z,93.40
2022-12-29T06:08:07.114Z,93.40
2022-12-29T06:10:35.024Z,93.30
2022-12-29T06:13:06.784Z,93.30
2022-12-29T06:15:36.929Z,93.20
2022-12-29T06:18:06.435Z,93.10
2022-12-29T06:20:34.597Z,93.20
2022-12-29T06:23:03.843Z,92.90
2022-12-29T06:25:34.496Z,92.80
2022-12-29T06:28:02.767Z,92.80
2022-12-29T06:30:29.621Z,92.70
2022-12-29T06:32:56.644Z,92.70
2022-12-29T06:35:24.760Z,92.70
2022-12-29T06:37:52.380Z,92.60
2022-12-29T06:40:20.397Z,92.70
2022-12-29T06:43:19.381Z,92.70
2022-12-29T06:46:05.163Z,92.90
2022-12-29T06:48:32.065Z,92.70
2022-12-29T06:50:58.966Z,92.70
2022-12-29T06:53:25.743Z,92.60
2022-12-29T06:55:52.664Z,92.60
2022-12-29T06:58:19.433Z,92.60
2022-12-29T07:00:46.369Z,92.60
2022-12-29T07:03:13.202Z,92.60
2022-12-29T07:05:40.875Z,92.50
2022-12-29T07:08:07.790Z,92.50
2022-12-29T07:10:34.545Z,92.50
2022-12-29T07:13:01.300Z,92.40
2022-12-29T07:15:28.282Z,92.40
2022-12-29T07:17:55.172Z,92.40
2022-12-29T07:20:26.770Z,92.40
2022-12-29T07:22:54.446Z,92.30
2022-12-29T07:25:21.327Z,92.30
2022-12-29T07:27:48.308Z,92.30
2022-12-29T07:30:15.496Z,92.30
2022-12-29T07:32:42.362Z,92.40
2022-12-29T07:35:09.314Z,92.40
2022-12-29T07:37:36.116Z,92.40
2022-12-29T07:40:04.426Z,92.50
2022-12-29T07:42:32.260Z,92.60
2022-12-29T07:45:00.055Z,92.60
2022-12-29T07:47:33.635Z,92.50
2022-12-29T07:50:00.744Z,92.30
2022-12-29T07:52:27.533Z,92.10
2022-12-29T07:54:54.349Z,92.00
2022-12-29T07:57:23.898Z,92.00
2022-12-29T07:59:54.797Z,92.00
2022-12-29T08:02:21.701Z,92.10
2022-12-29T08:04:48.626Z,92.10
2022-12-29T08:07:15.448Z,92.10
2022-12-29T08:09:42.290Z,92.10
2022-12-29T08:12:11.059Z,92.20
2022-12-29T08:14:37.938Z,92.20
2022-12-29T08:17:04.759Z,92.20
2022-12-29T08:19:31.556Z,92.30
2022-12-29T08:21:58.347Z,92.40
2022-12-29T08:24:25.154Z,92.40
2022-12-29T08:26:52.071Z,92.40
2022-12-29T08:29:18.939Z,92.50
2022-12-29T08:31:45.814Z,92.50
2022-12-29T08:34:12.646Z,92.50
2022-12-29T08:36:39.567Z,92.60
2022-12-29T08:39:06.386Z,92.60
2022-12-29T08:41:33.162Z,92.60
2022-12-29T08:44:00.257Z,92.60
2022-12-29T08:46:27.191Z,92.60
2022-12-29T08:48:54.718Z,92.60
2022-12-29T08:51:24.636Z,92.60
2022-12-29T08:53:52.001Z,92.50
2022-12-29T08:56:18.830Z,92.50
2022-12-29T08:58:50.753Z,92.50
2022-12-29T09:01:18.754Z,92.40
2022-12-29T09:04:13.672Z,92.30
2022-12-29T09:06:38.080Z,92.20
2022-12-29T09:09:06.968Z,92.20
2022-12-29T09:11:33.951Z,92.20
2022-12-29T09:14:01.303Z,92.10
2022-12-29T09:16:28.297Z,92.10
2022-12-29T09:18:55.155Z,92.10
2022-12-29T09:21:22.118Z,92.10
2022-12-29T09:23:49.401Z,92.00
2022-12-29T09:26:16.247Z,92.10
2022-12-29T09:28:43.293Z,92.10
2022-12-29T09:31:10.233Z,92.40
2022-12-29T09:33:37.108Z,92.20
2022-12-29T09:36:04.191Z,92.20
2022-12-29T09:38:31.653Z,92.30
2022-12-29T09:41:19.515Z,92.30
2022-12-29T09:44:07.749Z,92.30
2022-12-29T09:46:40.273Z,92.20
2022-12-29T09:49:35.121Z,92.20
2022-12-29T09:52:05.191Z,92.10
2022-12-29T09:54:58.079Z,92.20
2022-12-29T09:57:36.357Z,92.10
2022-12-29T10:00:17.827Z,92.10
2022-12-29T10:02:45.524Z,92.00
2022-12-29T10:05:37.429Z,92.10
2022-12-29T10:08:23.177Z,92.00
2022-12-29T10:11:21.715Z,92.00
2022-12-29T10:14:17.479Z,91.90
2022-12-29T10:16:50.998Z,91.80
2022-12-29T10:19:32.764Z,91.60
2022-12-29T10:22:20.503Z,91.60
2022-12-29T10:24:48.317Z,91.50
2022-12-29T10:27:16.627Z,91.50
2022-12-29T10:29:52.430Z,91.50
2022-12-29T10:32:30.786Z,91.40
2022-12-29T10:35:00.385Z,91.40
2022-12-29T10:37:48.919Z,91.40
2022-12-29T10:40:43.699Z,91.30
2022-12-29T10:43:30.647Z,91.30
2022-12-29T10:46:09.547Z,91.20
2022-12-29T10:48:37.473Z,91.30
2022-12-29T10:51:06.144Z,91.30
2022-12-29T10:53:54.641Z,91.20
2022-12-29T10:56:41.026Z,91.10
2022-12-29T10:59:20.615Z,91.10
2022-12-29T11:01:57.689Z,91.10
2022-12-29T11:04:59.494Z,91.10
2022-12-29T11:07:27.799Z,90.90
2022-12-29T11:09:54.886Z,90.90
2022-12-29T11:12:25.793Z,90.90
2022-12-29T11:15:11.380Z,90.90
2022-12-29T11:17:49.147Z,90.90
2022-12-29T11:20:27.708Z,90.80
2022-12-29T11:22:54.540Z,90.80
2022-12-29T11:25:21.430Z,90.80
2022-12-29T11:28:31.518Z,90.90
2022-12-29T11:31:01.171Z,90.60
2022-12-29T11:33:30.051Z,90.50
2022-12-29T11:36:11.526Z,90.60
2022-12-29T11:38:42.233Z,90.20
2022-12-29T11:41:12.737Z,90.10
2022-12-29T11:43:43.446Z,90.00
2022-12-29T11:46:49.599Z,90.00
2022-12-29T11:49:06.699Z,90.00
2022-12-29T11:51:43.213Z,90.00
2022-12-29T11:54:23.034Z,89.70
2022-12-29T11:56:49.841Z,89.40
2022-12-29T11:59:25.927Z,89.50
2022-12-29T12:01:52.768Z,89.00
2022-12-29T12:04:20.708Z,88.90
2022-12-29T12:06:53.370Z,88.40
2022-12-29T12:09:26.492Z,88.30
2022-12-29T12:11:54.894Z,88.20
2022-12-29T12:14:21.919Z,88.20
2022-12-29T12:17:12.083Z,88.20
2022-12-29T12:20:09.477Z,88.00
2022-12-29T12:22:38.607Z,88.40
2022-12-29T12:25:13.929Z,88.00
2022-12-29T12:27:53.178Z,87.80
2022-12-29T12:30:21.537Z,87.40
2022-12-29T12:32:57.145Z,87.20
2022-12-29T12:36:01.933Z,86.90
2022-12-29T12:38:46.476Z,86.60
2022-12-29T12:41:21.574Z,87.00
2022-12-29T12:44:07.587Z,87.20
2022-12-29T12:46:47.495Z,87.10
2022-12-29T12:49:39.118Z,87.00
2022-12-29T12:52:28.390Z,86.70
2022-12-29T12:54:58.231Z,86.00
2022-12-29T12:57:40.275Z,85.20
2022-12-29T13:00:21.422Z,84.20
2022-12-29T13:02:55.465Z,83.70
2022-12-29T13:05:27.414Z,83.60
2022-12-29T13:08:24.762Z,82.50
2022-12-29T13:10:53.500Z,81.60
2022-12-29T13:13:30.442Z,82.00
2022-12-29T13:16:28.212Z,81.60
2022-12-29T13:19:06.849Z,80.80
2022-12-29T13:22:01.966Z,80.80
2022-12-29T13:25:06.444Z,80.20
2022-12-29T13:27:45.651Z,80.20
2022-12-29T13:30:16.849Z,80.60
2022-12-29T13:32:54.459Z,80.80
2022-12-29T13:35:43.625Z,80.40
2022-12-29T13:38:25.226Z,80.30
2022-12-29T13:40:56.864Z,79.90
2022-12-29T13:43:23.717Z,80.40
2022-12-29T13:45:56.743Z,79.50
2022-12-29T13:48:25.892Z,78.70
2022-12-29T13:50:56.157Z,78.70
2022-12-29T13:53:31.871Z,78.70
2022-12-29T13:56:00.342Z,78.60
2022-12-29T13:58:47.089Z,78.90
2022-12-29T14:01:21.179Z,78.80
2022-12-29T14:03:55.672Z,79.10
2022-12-29T14:06:29.986Z,79.20
2022-12-29T14:09:01.707Z,79.50
2022-12-29T14:11:33.764Z,79.30
2022-12-29T14:14:01.323Z,79.40
2022-12-29T14:16:33.057Z,79.40
2022-12-29T14:19:32.559Z,79.30
2022-12-29T14:22:05.699Z,79.40
2022-12-29T14:24:35.718Z,79.50
2022-12-29T14:27:11.767Z,79.60
2022-12-29T14:29:41.567Z,79.40
2022-12-29T14:32:26.849Z,79.60
2022-12-29T14:34:54.219Z,79.60
2022-12-29T14:37:31.697Z,80.00
2022-12-29T14:40:18.953Z,79.70
2022-12-29T14:42:46.832Z,79.70
2022-12-29T14:45:17.620Z,80.10
2022-12-29T14:47:51.416Z,80.10
2022-12-29T14:50:22.050Z,80.30
2022-12-29T14:53:02.522Z,80.30
2022-12-29T14:55:42.763Z,80.30
2022-12-29T14:58:18.714Z,80.40
2022-12-29T15:00:45.693Z,80.40
2022-12-29T15:03:18.352Z,80.50
2022-12-29T15:05:52.834Z,80.90
2022-12-29T15:08:21.972Z,80.60
2022-12-29T15:10:55.166Z,80.70
2022-12-29T15:13:38.843Z,81.20
2022-12-29T15:16:06.317Z,80.70
2022-12-29T15:18:33.882Z,80.90
2022-12-29T15:21:05.650Z,80.90
2022-12-29T15:23:34.137Z,80.70
2022-12-29T15:26:02.183Z,80.70
2022-12-29T15:28:29.751Z,80.60
2022-12-29T15:31:03.292Z,80.60
2022-12-29T15:33:30.303Z,80.70
2022-12-29T15:35:58.378Z,80.80
2022-12-29T15:38:33.360Z,80.60
2022-12-29T15:41:24.500Z,80.70
2022-12-29T15:44:17.765Z,80.80
2022-12-29T15:46:44.625Z,80.80
2022-12-29T15:49:14.255Z,81.10
2022-12-29T15:51:41.179Z,81.00
2022-12-29T15:54:20.883Z,80.90
2022-12-29T15:56:47.827Z,80.90
2022-12-29T15:59:31.771Z,81.00
2022-12-29T16:01:59.402Z,80.70
2022-12-29T16:04:28.428Z,81.10
2022-12-29T16:07:00.290Z,81.30
2022-12-29T16:09:33.739Z,81.10
2022-12-29T16:12:07.848Z,81.20
2022-12-29T16:14:34.614Z,81.30
2022-12-29T16:17:03.834Z,81.50
2022-12-29T16:19:34.523Z,82.00
2022-12-29T16:22:01.787Z,81.60
2022-12-29T16:24:31.804Z,81.70
2022-12-29T16:27:20.890Z,81.80
2022-12-29T16:29:48.566Z,81.80
2022-12-29T16:32:29.163Z,82.10
2022-12-29T16:35:35.666Z,82.10
2022-12-29T16:38:12.560Z,82.10
2022-12-29T16:40:42.043Z,82.20
2022-12-29T16:43:26.922Z,82.20
2022-12-29T16:45:54.285Z,82.20
2022-12-29T16:48:31.351Z,82.30
2022-12-29T16:51:18.678Z,82.30
2022-12-29T16:53:51.142Z,82.30
2022-12-29T16:56:19.938Z,82.50
2022-12-29T16:58:51.060Z,82.70
2022-12-29T17:01:19.999Z,82.80
2022-12-29T17:04:01.680Z,83.10
2022-12-29T17:06:28.482Z,83.10
2022-12-29T17:08:55.262Z,83.40
2022-12-29T17:11:53.947Z,83.50
2022-12-29T17:14:37.135Z,83.60
2022-12-29T17:17:06.194Z,83.80
2022-12-29T17:19:38.483Z,83.90
2022-12-29T17:22:14.881Z,84.50
2022-12-29T17:24:42.068Z,84.20
2022-12-29T17:27:09.999Z,84.30
2022-12-29T17:29:37.546Z,84.50
2022-12-29T17:32:05.867Z,84.60
2022-12-29T17:34:33.202Z,84.70
2022-12-29T17:37:00.025Z,84.70
2022-12-29T17:39:26.839Z,84.80
2022-12-29T17:41:53.631Z,84.90
2022-12-29T17:44:21.111Z,85.00
2022-12-29T17:46:48.903Z,85.10
2022-12-29T17:49:17.291Z,85.20
2022-12-29T17:51:44.657Z,85.20
2022-12-29T17:54:25.364Z,85.40
2022-12-29T17:56:52.218Z,85.50
2022-12-29T17:59:19.215Z,85.60
2022-12-29T18:01:47.074Z,85.70
2022-12-29T18:04:15.684Z,86.30
2022-12-29T18:06:42.776Z,86.00
2022-12-29T18:09:10.731Z,86.50
2022-12-29T18:11:41.882Z,86.20
2022-12-29T18:14:13.357Z,86.30
2022-12-29T18:16:40.279Z,86.50
2022-12-29T18:19:07.463Z,86.50
2022-12-29T18:21:34.358Z,86.50
2022-12-29T18:24:01.208Z,86.60
2022-12-29T18:26:29.220Z,86.70
2022-12-29T18:28:56.797Z,86.80
2022-12-29T18:31:28.557Z,86.80
2022-12-29T18:33:56.461Z,86.90
2022-12-29T18:36:23.355Z,87.10
2022-12-29T18:38:50.926Z,87.10
2022-12-29T18:41:25.441Z,87.10
2022-12-29T18:43:52.425Z,87.30
2022-12-29T18:46:23.014Z,87.60
2022-12-29T18:48:50.421Z,87.60
2022-12-29T18:51:21.326Z,87.60
2022-12-29T18:53:48.320Z,87.60
2022-12-29T18:56:15.208Z,87.90
2022-12-29T18:58:42.166Z,88.20
2022-12-29T19:01:20.538Z,88.20
2022-12-29T19:03:47.947Z,88.10
2022-12-29T19:06:14.867Z,88.10
2022-12-29T19:08:42.017Z,88.00
2022-12-29T19:11:08.977Z,88.20
2022-12-29T19:13:35.893Z,88.20
2022-12-29T19:16:02.723Z,88.50
2022-12-29T19:18:50.864Z,88.60
2022-12-29T19:21:16.844Z,88.50
2022-12-29T19:23:43.687Z,88.50
2022-12-29T19:26:30.484Z,88.40
2022-12-29T19:28:57.533Z,88.30
2022-12-29T19:31:24.673Z,88.40
2022-12-29T19:33:51.674Z,88.90
2022-12-29T19:36:18.969Z,88.60
2022-12-29T19:38:46.211Z,88.70
2022-12-29T19:41:13.449Z,88.80
2022-12-29T19:43:40.453Z,88.90
2022-12-29T19:46:11.305Z,88.90
2022-12-29T19:48:38.244Z,88.90
2022-12-29T19:51:06.957Z,89.00
2022-12-29T19:53:34.239Z,89.10
2022-12-29T19:56:03.395Z,89.10
2022-12-29T19:58:30.527Z,89.20
2022-12-29T20:01:23.180Z,89.20
2022-12-29T20:03:50.440Z,89.30
2022-12-29T20:06:17.773Z,89.30
2022-12-29T20:08:44.678Z,89.40
2022-12-29T20:11:16.026Z,89.50
2022-12-29T20:13:43.010Z,89.50
2022-12-29T20:16:21.659Z,89.50
2022-12-29T20:18:51.723Z,89.70
2022-12-29T20:21:20.442Z,89.90
2022-12-29T20:23:47.447Z,89.90
2022-12-29T20:26:32.589Z,90.00
2022-12-29T20:29:00.087Z,90.00
2022-12-29T20:31:29.481Z,90.10
2022-12-29T20:33:56.372Z,90.10
2022-12-29T20:36:28.444Z,90.40
2022-12-29T20:38:55.994Z,90.20
2022-12-29T20:41:23.439Z,90.30
2022-12-29T20:43:50.618Z,90.30
2022-12-29T20:46:21.325Z,90.30
2022-12-29T20:48:49.412Z,90.30
2022-12-29T20:51:16.394Z,90.40
2022-12-29T20:53:43.189Z,90.50
2022-12-29T20:56:18.293Z,90.50
2022-12-29T20:59:25.329Z,90.80
2022-12-29T21:01:32.369Z,90.60
2022-12-29T21:03:59.832Z,90.60
2022-12-29T21:06:26.632Z,90.70
2022-12-29T21:08:55.060Z,90.70
2022-12-29T21:11:22.236Z,90.70
2022-12-29T21:13:49.127Z,90.80
2022-12-29T21:16:16.234Z,90.90
2022-12-29T21:18:43.125Z,90.90
2022-12-29T21:21:21.114Z,91.00
2022-12-29T21:23:47.984Z,91.00
2022-12-29T21:26:21.386Z,91.00
2022-12-29T21:28:48.474Z,91.00
2022-12-29T21:31:35.033Z,91.00
2022-12-29T21:34:02.698Z,91.10
2022-12-29T21:36:29.744Z,91.10
2022-12-29T21:38:58.173Z,91.10
2022-12-29T21:41:24.983Z,91.20
2022-12-29T21:44:10.331Z,91.20
2022-12-29T21:46:38.952Z,91.20
2022-12-29T21:49:05.977Z,91.20
2022-12-29T21:51:50.767Z,91.30
2022-12-29T21:54:40.561Z,91.30
2022-12-29T21:57:07.621Z,91.40
2022-12-29T21:59:53.155Z,91.40
2022-12-29T22:02:42.759Z,91.60
2022-12-29T22:05:32.969Z,91.50
2022-12-29T22:08:18.739Z,91.50
2022-12-29T22:11:05.201Z,91.50
2022-12-29T22:13:33.147Z,91.60
2022-12-29T22:16:01.748Z,91.60
2022-12-29T22:18:28.747Z,91.60
2022-12-29T22:20:55.614Z,91.70
2022-12-29T22:23:22.576Z,91.70
2022-12-29T22:25:51.239Z,91.70
2022-12-29T22:28:18.173Z,91.80
2022-12-29T22:30:45.187Z,91.80
2022-12-29T22:33:12.099Z,91.80
2022-12-29T22:35:38.927Z,91.80
2022-12-29T22:38:05.971Z,91.90
2022-12-29T22:40:33.476Z,91.90
2022-12-29T22:43:00.474Z,91.90
2022-12-29T22:45:27.418Z,92.00
2022-12-29T22:47:54.247Z,92.00
2022-12-29T22:50:21.093Z,92.10
2022-12-29T22:52:48.041Z,92.10
2022-12-29T22:55:14.931Z,92.10
2022-12-29T22:57:41.821Z,92.20
2022-12-29T23:00:09.178Z,92.20
2022-12-29T23:02:36.116Z,92.30
2022-12-29T23:05:04.823Z,92.30
2022-12-29T23:07:33.250Z,92.40
2022-12-29T23:10:00.182Z,92.50
2022-12-29T23:12:29.467Z,92.60
2022-12-29T23:14:56.331Z,92.50
2022-12-29T23:17:25.097Z,92.40
2022-12-29T23:19:52.715Z,92.30
2022-12-29T23:22:19.751Z,92.20
2022-12-29T23:24:46.572Z,92.20
2022-12-29T23:27:13.902Z,92.20
2022-12-29T23:29:40.706Z,92.30
2022-12-29T23:32:07.554Z,92.50
2022-12-29T23:34:34.376Z,92.30
2022-12-29T23:37:01.172Z,92.30
2022-12-29T23:39:29.119Z,92.30
2022-12-29T23:41:56.091Z,92.40
2022-12-29T23:44:23.182Z,92.40
2022-12-29T23:46:50.143Z,92.50
2022-12-29T23:49:17.094Z,92.40
2022-12-29T23:51:43.932Z,92.50
2022-12-29T23:54:10.743Z,92.50
2022-12-29T23:56:37.513Z,92.50
2022-12-29T23:59:05.130Z,92.60
